Saint Paul, Minnesota
Current Conditions -  °F | °C
As of 7:53 AM on Friday 28 Nov 2014 (Local Time) from KSTP Reporting Station
Overcast Overcast  
Wind Chill:   Ceiling: 2700
Heat Index: 14°   Visibility: 10mi
Dew Point:   Wind: 9mph
Humidity: 77%   Direction: 120°ESE
Pressure: 30.03"   Gusts: NA
Location:  44.93°N, 93.07°W
Report Text: KSTP 281353Z 12008KT 10SM OVC027 M10/M13 A3003 RMK AO2 SLP182 T11001133
Loading
Personal Weather Stations






























Interactive Weather Map New forecast layout! Learn more

10-Day Weather Forecast

Advertisements
Track Severe Weather on mobile